createdAt,value
2017-10-31T00:01:42.692Z,100572.37
2017-10-31T00:04:19.745Z,100576.91
2017-10-31T00:06:56.375Z,100573.34
2017-10-31T00:09:33.629Z,100579.60
2017-10-31T00:12:13.379Z,100577.53
2017-10-31T00:14:50.127Z,100574.02
2017-10-31T00:17:26.864Z,100579.43
2017-10-31T00:20:03.595Z,100578.64
2017-10-31T05:23:03.191Z,100786.95
2017-10-31T05:25:32.108Z,100788.67
2017-10-31T05:28:11.706Z,100799.55
2017-10-31T05:30:48.609Z,100801.72
2017-10-31T05:33:27.065Z,100803.52
2017-10-31T05:36:04.337Z,100809.84
2017-10-31T05:38:42.258Z,100809.20
2017-10-31T05:41:20.643Z,100803.63
2017-10-31T05:43:57.858Z,100810.02
2017-10-31T05:46:34.908Z,100814.08
2017-10-31T05:49:12.749Z,100820.81
2017-10-31T05:51:49.253Z,100820.30
2017-10-31T05:54:27.925Z,100826.92
2017-10-31T05:57:04.315Z,100830.00
2017-10-31T05:59:42.216Z,100837.24
2017-10-31T06:02:18.981Z,100845.62
2017-10-31T06:04:55.992Z,100848.08
2017-10-31T06:07:32.320Z,100856.92
2017-10-31T06:10:09.091Z,100851.63
2017-10-31T06:12:45.921Z,100855.09
2017-10-31T06:15:22.592Z,100854.19
2017-10-31T06:17:59.365Z,100860.22
2017-10-31T06:20:30.174Z,100856.52
2017-10-31T06:23:13.078Z,100865.39
2017-10-31T06:25:47.560Z,100873.53
2017-10-31T06:28:30.074Z,100875.86
2017-10-31T06:31:14.130Z,100881.34
2017-10-31T06:33:50.690Z,100875.09
2017-10-31T06:36:27.377Z,100879.88
2017-10-31T06:39:06.197Z,100874.05
2017-10-31T06:41:45.344Z,100871.97
2017-10-31T06:44:22.344Z,100877.96
2017-10-31T06:47:00.182Z,100870.16
2017-10-31T06:49:36.977Z,100880.83
2017-10-31T06:52:13.237Z,100883.56
2017-10-31T06:54:49.929Z,100881.55
2017-10-31T06:57:27.961Z,100887.11
2017-10-31T07:00:04.432Z,100899.02
2017-10-31T07:02:44.804Z,100901.36
2017-10-31T07:05:21.461Z,100891.03
2017-10-31T07:07:58.553Z,100906.47
2017-10-31T07:10:36.520Z,100901.67
2017-10-31T07:13:14.274Z,100897.44
2017-10-31T07:15:51.181Z,100905.05
2017-10-31T07:18:28.157Z,100895.38
2017-10-31T07:21:05.001Z,100904.13
2017-10-31T07:23:38.086Z,100911.78
2017-10-31T07:26:14.634Z,100902.17
2017-10-31T07:28:54.003Z,100901.78
2017-10-31T07:31:31.131Z,100903.46
2017-10-31T07:34:10.400Z,100904.76
2017-10-31T07:36:39.334Z,100907.72
2017-10-31T07:39:08.238Z,100912.58
2017-10-31T07:41:46.090Z,100910.61
2017-10-31T07:44:23.047Z,100919.17
2017-10-31T07:47:01.090Z,100921.41
2017-10-31T07:49:37.428Z,100919.06
2017-10-31T07:52:15.314Z,100921.19
2017-10-31T07:54:52.630Z,100925.05
2017-10-31T07:57:31.959Z,100923.72
2017-10-31T08:00:08.369Z,100920.02
2017-10-31T08:02:46.237Z,100934.05
2017-10-31T08:05:22.688Z,100938.80
2017-10-31T08:07:59.867Z,100943.64
2017-10-31T08:10:37.417Z,100939.49
2017-10-31T08:13:14.303Z,100944.70
2017-10-31T08:15:52.057Z,100928.33
2017-10-31T08:18:29.872Z,100933.78
2017-10-31T08:21:06.296Z,100924.09
2017-10-31T08:23:37.890Z,100922.31
2017-10-31T08:26:14.416Z,100938.42
2017-10-31T08:28:52.244Z,100941.44
2017-10-31T08:31:29.439Z,100930.62
2017-10-31T08:34:06.800Z,100934.66
2017-10-31T08:36:43.880Z,100930.14
2017-10-31T08:39:21.800Z,100926.02
2017-10-31T08:41:58.135Z,100917.53
2017-10-31T08:44:36.233Z,100917.86
2017-10-31T08:47:13.329Z,100917.52
2017-10-31T08:49:50.298Z,100916.74
2017-10-31T08:52:27.177Z,100914.25
2017-10-31T08:55:04.253Z,100909.59
2017-10-31T08:57:40.969Z,100903.23
2017-10-31T09:00:18.377Z,100909.20
2017-10-31T09:02:56.333Z,100921.49
2017-10-31T09:05:34.188Z,100925.31
2017-10-31T09:08:10.402Z,100924.42
2017-10-31T09:10:47.926Z,100922.19
2017-10-31T09:13:24.663Z,100929.40
2017-10-31T09:16:02.390Z,100931.11
2017-10-31T09:18:39.116Z,100927.29
2017-10-31T09:21:16.454Z,100931.84
2017-10-31T09:23:45.406Z,100925.48
2017-10-31T09:26:28.760Z,100926.86
2017-10-31T09:29:06.040Z,100926.48
2017-10-31T09:31:42.933Z,100922.69
2017-10-31T09:34:19.556Z,100922.27
2017-10-31T09:36:58.270Z,100908.27
2017-10-31T09:39:35.119Z,100916.75
2017-10-31T09:42:12.348Z,100913.83
2017-10-31T09:44:49.088Z,100910.47
2017-10-31T09:47:32.070Z,100916.86
2017-10-31T09:50:08.255Z,100900.72
2017-10-31T09:52:45.005Z,100904.97
2017-10-31T09:55:21.553Z,100916.86
2017-10-31T09:58:00.872Z,100916.83
2017-10-31T10:00:37.318Z,100918.09
2017-10-31T10:03:15.866Z,100913.44
2017-10-31T10:05:54.103Z,100910.06
2017-10-31T10:08:30.859Z,100910.89
2017-10-31T10:11:07.935Z,100915.55
2017-10-31T10:13:45.041Z,100926.16
2017-10-31T10:16:21.841Z,100930.41
2017-10-31T10:19:00.797Z,100917.67
2017-10-31T10:21:36.811Z,100923.19
2017-10-31T10:24:14.236Z,100907.50
2017-10-31T10:26:50.712Z,100910.01
2017-10-31T10:29:28.296Z,100903.60
2017-10-31T10:32:05.391Z,100914.21
2017-10-31T10:34:42.881Z,100915.48
2017-10-31T10:37:19.988Z,100917.59
2017-10-31T10:39:57.144Z,100909.16
2017-10-31T10:42:36.178Z,100920.14
2017-10-31T10:45:12.549Z,100922.25
2017-10-31T10:47:49.350Z,100918.48
2017-10-31T10:50:31.755Z,100909.20
2017-10-31T10:53:08.998Z,100898.19
2017-10-31T10:55:45.795Z,100914.70
2017-10-31T10:58:22.773Z,100913.41
2017-10-31T11:01:04.598Z,100927.28
2017-10-31T11:03:41.068Z,100918.25
2017-10-31T11:06:17.767Z,100922.47
2017-10-31T11:08:54.936Z,100908.84
2017-10-31T11:11:32.004Z,100909.20
2017-10-31T11:14:08.951Z,100924.86
2017-10-31T11:16:52.397Z,100910.43
2017-10-31T11:19:29.281Z,100903.17
2017-10-31T11:21:59.570Z,100901.94
2017-10-31T11:24:36.002Z,100901.99
2017-10-31T11:27:12.892Z,100905.77
2017-10-31T11:29:49.436Z,100908.30
2017-10-31T11:32:26.004Z,100900.68
2017-10-31T11:35:02.987Z,100913.39
2017-10-31T11:37:44.669Z,100932.02
2017-10-31T11:40:21.561Z,100915.61
2017-10-31T11:43:00.501Z,100912.67
2017-10-31T11:45:38.179Z,100926.22
2017-10-31T11:48:14.943Z,100911.83
2017-10-31T11:50:51.774Z,100921.17
2017-10-31T11:53:28.281Z,100917.74
2017-10-31T11:56:04.849Z,100932.56
2017-10-31T11:58:41.944Z,100922.42
2017-10-31T12:01:18.137Z,100917.39
2017-10-31T12:03:56.539Z,100915.23
2017-10-31T12:06:33.535Z,100914.87
2017-10-31T12:09:10.587Z,100903.44
2017-10-31T12:11:47.028Z,100910.23
2017-10-31T12:14:24.541Z,100913.62
2017-10-31T12:17:00.968Z,100916.26
2017-10-31T12:19:37.783Z,100909.47
2017-10-31T12:22:14.343Z,100905.57
2017-10-31T12:24:51.242Z,100918.66
2017-10-31T12:27:27.482Z,100916.51
2017-10-31T12:30:06.515Z,100919.36
2017-10-31T12:32:44.041Z,100918.59
2017-10-31T12:35:20.836Z,100919.05
2017-10-31T12:37:57.514Z,100926.72
2017-10-31T12:40:37.954Z,100925.05
2017-10-31T12:43:14.391Z,100934.77
2017-10-31T12:45:51.256Z,100928.84
2017-10-31T12:48:27.820Z,100938.53
2017-10-31T12:51:06.190Z,100934.72
2017-10-31T12:53:43.590Z,100929.20
2017-10-31T12:56:21.287Z,100929.52
2017-10-31T12:58:57.928Z,100927.80
2017-10-31T13:01:34.987Z,100917.65
2017-10-31T13:04:11.590Z,100914.25
2017-10-31T13:06:49.187Z,100918.58
2017-10-31T13:09:25.938Z,100925.44
2017-10-31T13:12:08.169Z,100923.75
2017-10-31T13:14:44.752Z,100927.94
2017-10-31T13:17:21.046Z,100926.25
2017-10-31T13:19:59.738Z,100930.48
2017-10-31T13:22:28.816Z,100926.21
2017-10-31T13:25:05.819Z,100930.86
2017-10-31T13:27:42.967Z,100926.56
2017-10-31T13:30:19.934Z,100926.55
2017-10-31T13:32:56.403Z,100931.47
2017-10-31T13:35:33.245Z,100931.48
2017-10-31T13:38:10.365Z,100934.04
2017-10-31T13:40:48.448Z,100930.61
2017-10-31T13:43:28.073Z,100941.55
2017-10-31T13:46:06.788Z,100936.09
2017-10-31T13:48:43.561Z,100933.98
2017-10-31T13:51:20.583Z,100930.11
2017-10-31T13:53:56.973Z,100931.38
2017-10-31T13:56:33.647Z,100922.56
2017-10-31T13:59:10.434Z,100925.12
2017-10-31T14:01:47.481Z,100932.34
2017-10-31T14:04:26.976Z,100931.93
2017-10-31T14:07:04.288Z,100929.36
2017-10-31T14:09:41.918Z,100940.36
2017-10-31T14:12:19.941Z,100943.66
2017-10-31T14:14:57.096Z,100938.55
2017-10-31T14:17:33.681Z,100935.59
2017-10-31T14:20:12.446Z,100939.36
2017-10-31T14:22:49.266Z,100937.58
2017-10-31T14:25:26.111Z,100930.02
2017-10-31T14:28:03.077Z,100940.52
2017-10-31T14:30:41.004Z,100941.77
2017-10-31T14:33:17.923Z,100935.36
2017-10-31T14:35:55.846Z,100933.14
2017-10-31T14:38:32.731Z,100935.23
2017-10-31T14:41:11.568Z,100932.63
2017-10-31T14:43:48.239Z,100932.69
2017-10-31T14:46:25.620Z,100941.86
2017-10-31T14:49:02.605Z,100944.81
2017-10-31T14:51:40.346Z,100957.81
2017-10-31T14:54:16.740Z,100958.66
2017-10-31T14:56:56.191Z,100960.34
2017-10-31T14:59:34.009Z,100960.62
2017-10-31T15:02:15.686Z,100959.72
2017-10-31T15:04:52.439Z,100963.48
2017-10-31T15:07:37.269Z,100968.56
2017-10-31T15:10:18.286Z,100971.83
2017-10-31T15:12:54.969Z,100974.30
2017-10-31T15:15:32.240Z,100968.70
2017-10-31T15:18:09.047Z,100977.14
2017-10-31T15:20:45.544Z,100982.45
2017-10-31T15:23:16.425Z,100980.70
2017-10-31T15:25:53.172Z,100979.33
2017-10-31T15:28:33.695Z,100982.39
2017-10-31T15:31:09.969Z,100985.33
2017-10-31T15:33:48.452Z,100989.48
2017-10-31T15:36:25.593Z,100992.80
2017-10-31T15:39:02.930Z,100996.20
2017-10-31T15:41:39.602Z,100995.73
2017-10-31T15:44:19.581Z,101003.70
2017-10-31T15:46:56.779Z,101003.69
2017-10-31T15:49:33.955Z,101007.51
2017-10-31T15:52:10.814Z,101011.97
2017-10-31T15:54:52.032Z,101022.84
2017-10-31T15:57:28.760Z,101023.49
2017-10-31T16:00:05.791Z,101031.45
2017-10-31T16:02:52.048Z,101027.56
2017-10-31T16:05:29.485Z,101040.53
2017-10-31T16:08:06.192Z,101038.05
2017-10-31T16:10:44.993Z,101050.01
2017-10-31T16:13:22.097Z,101052.82
2017-10-31T16:15:59.159Z,101054.44
2017-10-31T16:18:36.308Z,101061.09
2017-10-31T16:21:13.801Z,101056.23
2017-10-31T16:23:54.683Z,101059.19
2017-10-31T16:26:34.246Z,101064.58
2017-10-31T16:29:15.308Z,101066.58
2017-10-31T16:31:52.659Z,101073.52
2017-10-31T16:34:29.446Z,101079.30
2017-10-31T16:37:11.257Z,101079.77
2017-10-31T16:39:48.162Z,101079.88
2017-10-31T16:42:25.175Z,101077.78
2017-10-31T16:45:02.079Z,101085.66
2017-10-31T16:47:39.230Z,101074.88
2017-10-31T16:50:16.351Z,101089.98
2017-10-31T16:52:53.971Z,101085.73
2017-10-31T16:55:30.924Z,101081.80
2017-10-31T16:58:08.934Z,101095.29
2017-10-31T17:00:45.917Z,101100.02
2017-10-31T17:03:22.881Z,101107.98
2017-10-31T17:05:59.795Z,101115.89
2017-10-31T17:08:37.811Z,101121.50
2017-10-31T17:11:14.637Z,101117.12
2017-10-31T17:13:51.233Z,101117.98
2017-10-31T17:16:20.238Z,101115.55
2017-10-31T17:18:59.145Z,101110.61
2017-10-31T17:21:35.748Z,101108.46
2017-10-31T17:27:09.680Z,101112.41
2017-10-31T17:29:46.451Z,101116.97
2017-10-31T17:32:24.903Z,101115.36
2017-10-31T17:35:02.259Z,101117.45
2017-10-31T17:37:39.511Z,101121.22
2017-10-31T17:40:17.457Z,101119.19
2017-10-31T17:42:55.460Z,101119.25
2017-10-31T17:45:34.347Z,101122.25
2017-10-31T17:48:12.036Z,101122.57
2017-10-31T17:50:49.288Z,101117.73
2017-10-31T17:53:26.424Z,101127.52
2017-10-31T17:56:03.573Z,101123.80
2017-10-31T17:58:40.339Z,101125.14
2017-10-31T18:01:17.136Z,101129.13
2017-10-31T18:03:56.594Z,101135.72
2017-10-31T18:06:33.655Z,101128.34
2017-10-31T18:09:10.640Z,101117.50
2017-10-31T18:11:47.539Z,101120.05
2017-10-31T18:14:26.274Z,101117.36
2017-10-31T18:17:03.307Z,101121.20
2017-10-31T18:19:41.479Z,101124.34
2017-10-31T18:22:18.667Z,101128.55
2017-10-31T18:24:58.696Z,101131.81
2017-10-31T18:27:36.002Z,101138.74
2017-10-31T18:30:13.802Z,101142.50
2017-10-31T18:32:50.664Z,101141.70
2017-10-31T18:35:29.499Z,101141.55
2017-10-31T18:38:06.139Z,101143.47
2017-10-31T18:40:45.222Z,101147.19
2017-10-31T18:43:22.419Z,101139.23
2017-10-31T18:45:59.083Z,101148.98
2017-10-31T18:48:36.124Z,101143.01
2017-10-31T18:51:14.042Z,101138.78
2017-10-31T18:53:51.187Z,101143.16
2017-10-31T18:56:28.363Z,101144.45
2017-10-31T18:59:05.499Z,101141.91
2017-10-31T19:01:42.448Z,101149.47
2017-10-31T19:04:19.661Z,101144.91
2017-10-31T19:06:59.405Z,101145.25
2017-10-31T19:09:28.396Z,101150.00
2017-10-31T19:12:04.795Z,101159.36
2017-10-31T19:14:41.118Z,101161.33
2017-10-31T19:17:18.567Z,101157.94
2017-10-31T19:19:55.262Z,101164.89
2017-10-31T19:22:25.152Z,101162.58
2017-10-31T19:25:02.193Z,101165.41
2017-10-31T19:27:39.238Z,101162.17
2017-10-31T19:30:15.777Z,101162.52
2017-10-31T19:32:52.557Z,101166.17
2017-10-31T19:35:29.538Z,101157.69
2017-10-31T19:38:06.076Z,101165.56
2017-10-31T19:40:42.688Z,101165.05
2017-10-31T19:43:19.701Z,101161.63
2017-10-31T19:46:00.687Z,101162.86
2017-10-31T19:48:37.888Z,101155.55
2017-10-31T19:51:14.846Z,101160.65
2017-10-31T19:53:51.390Z,101161.45
2017-10-31T19:56:28.095Z,101154.83
2017-10-31T19:59:07.438Z,101154.71
2017-10-31T20:01:44.301Z,101156.34
2017-10-31T20:04:22.021Z,101152.37
2017-10-31T20:06:58.717Z,101146.15
2017-10-31T20:09:35.412Z,101147.31
2017-10-31T20:12:12.054Z,101161.24
2017-10-31T20:14:49.448Z,101155.39
2017-10-31T20:17:26.229Z,101157.95
2017-10-31T20:20:04.988Z,101163.77
2017-10-31T20:22:41.490Z,101166.52
2017-10-31T20:25:18.200Z,101165.29
2017-10-31T20:27:54.975Z,101172.87
2017-10-31T20:30:32.062Z,101172.04
2017-10-31T20:33:08.514Z,101173.88
2017-10-31T20:35:45.334Z,101172.33
2017-10-31T20:38:22.578Z,101165.68
2017-10-31T20:40:59.222Z,101164.53
2017-10-31T20:43:36.736Z,101163.85
2017-10-31T20:46:13.439Z,101164.38
2017-10-31T20:48:50.363Z,101166.27
2017-10-31T20:51:29.802Z,101170.75
2017-10-31T20:54:07.063Z,101175.55
2017-10-31T20:56:45.426Z,101167.95
2017-10-31T20:59:22.518Z,101165.92
2017-10-31T21:02:01.731Z,101170.86
2017-10-31T21:04:38.977Z,101165.67
2017-10-31T21:07:08.127Z,101156.84
2017-10-31T21:09:44.798Z,101150.61
2017-10-31T21:12:21.735Z,101153.54
2017-10-31T21:14:58.471Z,101163.17
2017-10-31T21:17:27.909Z,101161.75
2017-10-31T21:20:04.574Z,101169.58
2017-10-31T21:22:33.643Z,101171.05
2017-10-31T21:25:11.451Z,101166.73
2017-10-31T21:27:50.037Z,101168.08
2017-10-31T21:30:27.334Z,101170.76
2017-10-31T21:35:37.960Z,101166.61
2017-10-31T21:38:14.886Z,101164.50
2017-10-31T21:40:51.852Z,101167.91
2017-10-31T21:43:35.693Z,101170.84
2017-10-31T21:46:13.092Z,101169.17
2017-10-31T21:48:55.221Z,101170.92
2017-10-31T21:51:33.824Z,101173.41
2017-10-31T21:54:11.139Z,101173.98
2017-10-31T21:56:49.797Z,101169.56
2017-10-31T21:59:26.988Z,101176.64
2017-10-31T22:02:06.362Z,101171.09
2017-10-31T22:04:47.052Z,101171.92
2017-10-31T22:07:24.234Z,101176.03
2017-10-31T22:10:02.400Z,101177.66
2017-10-31T22:12:39.037Z,101181.38
2017-10-31T22:15:18.852Z,101187.45
2017-10-31T22:17:57.988Z,101184.83
2017-10-31T22:20:39.929Z,101185.27
2017-10-31T22:23:19.650Z,101188.09
2017-10-31T22:25:58.327Z,101184.48
2017-10-31T22:28:34.621Z,101190.27
2017-10-31T22:31:11.205Z,101188.36
2017-10-31T22:33:52.581Z,101197.25
2017-10-31T22:36:31.346Z,101194.86
2017-10-31T22:39:09.692Z,101196.51
2017-10-31T22:41:47.817Z,101199.84
2017-10-31T22:44:24.370Z,101204.50
2017-10-31T22:47:07.334Z,101204.59
2017-10-31T22:49:48.523Z,101203.14
2017-10-31T22:52:31.907Z,101203.16
2017-10-31T22:55:13.584Z,101202.06
2017-10-31T22:57:52.583Z,101202.36
2017-10-31T23:00:33.804Z,101205.59
2017-10-31T23:03:15.867Z,101207.09
2017-10-31T23:05:52.815Z,101206.02
2017-10-31T23:08:36.608Z,101198.32
2017-10-31T23:11:13.456Z,101192.17
2017-10-31T23:13:56.421Z,101193.07
2017-10-31T23:16:34.036Z,101200.63
2017-10-31T23:19:16.791Z,101197.15
2017-10-31T23:21:58.567Z,101199.23
2017-10-31T23:30:20.475Z,101210.84
2017-10-31T23:35:45.373Z,101219.67
2017-10-31T23:38:24.978Z,101221.84
2017-10-31T23:41:02.697Z,101223.55
2017-10-31T23:43:50.056Z,101222.69
2017-10-31T23:46:29.354Z,101218.68
2017-10-31T23:49:08.433Z,101224.30
2017-10-31T23:51:45.105Z,101217.94
2017-10-31T23:54:31.191Z,101213.70
2017-10-31T23:57:13.713Z,101212.42
2017-10-31T23:59:52.073Z,101220.13
